createdAt,value
2023-03-27T00:02:26.192Z,97928.97
2023-03-27T00:04:54.711Z,97936.19
2023-03-27T00:07:22.705Z,97924.94
2023-03-27T00:09:50.527Z,97922.53
2023-03-27T00:12:18.232Z,97923.88
2023-03-27T00:14:46.435Z,97924.81
2023-03-27T00:17:13.825Z,97915.09
2023-03-27T00:19:41.479Z,97912.34
2023-03-27T00:22:09.459Z,97908.09
2023-03-27T00:24:37.384Z,97909.38
2023-03-27T00:27:05.047Z,97899.78
2023-03-27T00:29:33.332Z,97895.31
2023-03-27T00:32:00.940Z,97886.94
2023-03-27T00:34:30.168Z,97884.94
2023-03-27T00:36:57.772Z,97886.78
2023-03-27T00:39:25.209Z,97890.91
2023-03-27T00:41:55.466Z,97884.00
2023-03-27T00:44:38.008Z,97874.53
2023-03-27T00:47:09.326Z,97873.81
2023-03-27T00:49:37.461Z,97877.50
2023-03-27T00:52:06.775Z,97869.13
2023-03-27T00:54:38.729Z,97869.31
2023-03-27T00:57:08.322Z,97859.97
2023-03-27T00:59:39.716Z,97855.88
2023-03-27T01:02:08.123Z,97848.25
2023-03-27T01:04:37.751Z,97848.66
2023-03-27T01:07:07.449Z,97843.72
2023-03-27T01:09:34.941Z,97835.16
2023-03-27T01:12:20.213Z,97834.16
2023-03-27T01:15:04.943Z,97831.63
2023-03-27T01:17:49.372Z,97836.63
2023-03-27T01:20:16.768Z,97825.84
2023-03-27T01:23:36.247Z,97829.66
2023-03-27T01:26:44.222Z,97821.87
2023-03-27T01:29:21.360Z,97820.31
2023-03-27T01:32:11.084Z,97819.56
2023-03-27T01:34:48.132Z,97802.94
2023-03-27T01:37:56.900Z,97805.44
2023-03-27T01:40:33.090Z,97803.91
2023-03-27T01:43:00.403Z,97795.00
2023-03-27T01:45:36.660Z,97798.63
2023-03-27T01:48:13.376Z,97792.94
2023-03-27T01:50:52.169Z,97793.03
2023-03-27T01:53:53.610Z,97783.81
2023-03-27T01:56:27.363Z,97780.84
2023-03-27T01:59:04.071Z,97777.34
2023-03-27T02:01:36.819Z,97780.31
2023-03-27T02:04:07.598Z,97788.84
2023-03-27T02:06:40.518Z,97785.06
2023-03-27T02:09:28.459Z,97786.16
2023-03-27T02:12:17.158Z,97788.59
2023-03-27T02:15:26.170Z,97790.91
2023-03-27T02:17:50.397Z,97779.75
2023-03-27T02:20:18.260Z,97784.03
2023-03-27T02:22:48.852Z,97766.81
2023-03-27T02:25:39.009Z,97750.53
2023-03-27T02:28:44.943Z,97747.97
2023-03-27T02:31:33.942Z,97736.06
2023-03-27T02:34:24.394Z,97730.97
2023-03-27T02:37:17.565Z,97717.72
2023-03-27T02:39:55.821Z,97716.88
2023-03-27T02:42:32.748Z,97710.19
2023-03-27T02:45:31.797Z,97695.41
2023-03-27T02:48:11.743Z,97700.78
2023-03-27T02:50:53.961Z,97693.25
2023-03-27T02:53:24.067Z,97697.91
2023-03-27T02:55:57.288Z,97684.47
2023-03-27T02:58:30.772Z,97686.28
2023-03-27T03:00:59.805Z,97679.88
2023-03-27T03:03:44.354Z,97680.59
2023-03-27T03:06:14.344Z,97679.03
2023-03-27T03:08:43.271Z,97677.75
2023-03-27T03:11:13.497Z,97668.25
2023-03-27T03:13:41.398Z,97672.09
2023-03-27T03:16:10.173Z,97669.00
2023-03-27T03:18:37.847Z,97670.88
2023-03-27T03:21:05.833Z,97667.81
2023-03-27T03:23:34.045Z,97670.72
2023-03-27T03:26:03.139Z,97671.78
2023-03-27T03:28:35.096Z,97670.34
2023-03-27T03:31:03.050Z,97672.22
2023-03-27T03:33:31.764Z,97664.53
2023-03-27T03:36:00.822Z,97670.59
2023-03-27T03:38:30.010Z,97666.88
2023-03-27T03:41:06.313Z,97671.06
2023-03-27T03:43:34.301Z,97674.03
2023-03-27T03:46:02.211Z,97673.75
2023-03-27T03:48:29.638Z,97664.19
2023-03-27T03:50:57.536Z,97662.53
2023-03-27T03:53:25.256Z,97662.88
2023-03-27T03:55:53.453Z,97657.72
2023-03-27T03:58:21.542Z,97662.41
2023-03-27T04:01:04.243Z,97660.50
2023-03-27T04:03:32.908Z,97661.06
2023-03-27T04:06:07.376Z,97658.84
2023-03-27T04:08:35.420Z,97665.41
2023-03-27T04:11:05.064Z,97653.56
2023-03-27T04:13:33.150Z,97654.69
2023-03-27T04:16:01.966Z,97657.62
2023-03-27T04:18:33.021Z,97658.84
2023-03-27T04:21:01.638Z,97659.75
2023-03-27T04:23:32.226Z,97655.34
2023-03-27T04:26:01.072Z,97663.53
2023-03-27T04:28:34.318Z,97655.84
2023-03-27T04:31:06.589Z,97657.12
2023-03-27T04:33:39.837Z,97657.22
2023-03-27T04:36:09.226Z,97652.00
2023-03-27T04:38:39.658Z,97650.69
2023-03-27T04:41:07.632Z,97645.84
2023-03-27T04:43:40.288Z,97643.53
2023-03-27T04:46:08.433Z,97649.66
2023-03-27T04:48:38.565Z,97644.59
2023-03-27T04:51:10.049Z,97641.72
2023-03-27T04:53:38.039Z,97648.09
2023-03-27T04:56:06.874Z,97646.59
2023-03-27T04:58:37.285Z,97638.97
2023-03-27T05:01:06.703Z,97638.13
2023-03-27T05:03:39.124Z,97638.37
2023-03-27T05:06:08.451Z,97635.44
2023-03-27T05:08:37.204Z,97627.91
2023-03-27T05:11:04.889Z,97627.38
2023-03-27T05:13:36.770Z,97616.91
2023-03-27T05:16:05.015Z,97627.59
2023-03-27T05:18:35.807Z,97621.50
2023-03-27T05:21:05.032Z,97617.53
2023-03-27T05:23:32.673Z,97617.75
2023-03-27T05:26:01.106Z,97619.69
2023-03-27T05:28:34.373Z,97617.97
2023-03-27T05:31:01.906Z,97627.38
2023-03-27T05:33:30.245Z,97608.25
2023-03-27T05:35:58.705Z,97622.41
2023-03-27T05:38:26.643Z,97618.84
2023-03-27T05:40:56.472Z,97619.16
2023-03-27T05:43:24.775Z,97616.81
2023-03-27T05:45:52.383Z,97619.12
2023-03-27T05:48:20.300Z,97616.41
2023-03-27T05:50:48.061Z,97611.84
2023-03-27T05:53:15.842Z,97609.97
2023-03-27T05:55:44.817Z,97608.63
2023-03-27T05:58:13.477Z,97608.56
2023-03-27T06:00:44.431Z,97602.25
2023-03-27T06:03:13.968Z,97596.78
2023-03-27T06:05:42.687Z,97600.41
2023-03-27T06:08:12.945Z,97597.19
2023-03-27T06:10:42.128Z,97595.69
2023-03-27T06:13:12.919Z,97596.16
2023-03-27T06:15:44.750Z,97591.22
2023-03-27T06:18:15.100Z,97582.28
2023-03-27T06:20:42.797Z,97581.56
2023-03-27T06:23:10.576Z,97583.97
2023-03-27T06:25:39.422Z,97584.03
2023-03-27T06:28:09.466Z,97588.66
2023-03-27T06:30:38.901Z,97584.34
2023-03-27T06:33:09.858Z,97579.44
2023-03-27T06:35:37.455Z,97580.06
2023-03-27T06:38:07.086Z,97581.16
2023-03-27T06:40:35.504Z,97587.25
2023-03-27T06:43:08.191Z,97588.66
2023-03-27T06:45:49.091Z,97585.56
2023-03-27T06:48:22.039Z,97588.75
2023-03-27T06:50:52.130Z,97584.66
2023-03-27T06:55:51.399Z,97590.94
2023-03-27T06:58:19.553Z,97596.72
2023-03-27T07:00:49.768Z,97595.22
2023-03-27T07:03:24.099Z,97599.56
2023-03-27T07:05:53.282Z,97603.81
2023-03-27T07:08:24.854Z,97606.88
2023-03-27T07:13:25.151Z,97612.41
2023-03-27T07:15:54.172Z,97605.19
2023-03-27T07:18:22.775Z,97603.59
2023-03-27T07:20:51.162Z,97604.06
2023-03-27T07:23:18.930Z,97606.34
2023-03-27T07:25:50.045Z,97610.41
2023-03-27T07:28:21.078Z,97599.25
2023-03-27T07:30:48.657Z,97608.44
2023-03-27T07:33:20.684Z,97601.34
2023-03-27T07:35:48.804Z,97598.47
2023-03-27T07:38:18.720Z,97601.78
2023-03-27T07:40:53.055Z,97617.88
2023-03-27T07:43:21.994Z,97618.84
2023-03-27T07:45:49.920Z,97619.69
2023-03-27T07:48:18.730Z,97620.66
2023-03-27T07:50:46.408Z,97624.44
2023-03-27T07:53:33.439Z,97611.16
2023-03-27T07:56:03.763Z,97613.09
2023-03-27T07:58:32.316Z,97606.25
2023-03-27T08:01:00.596Z,97606.16
2023-03-27T08:03:31.238Z,97609.13
2023-03-27T08:06:00.579Z,97600.47
2023-03-27T08:08:29.613Z,97610.19
2023-03-27T08:10:57.927Z,97610.16
2023-03-27T08:13:26.287Z,97624.69
2023-03-27T08:16:17.823Z,97632.75
2023-03-27T08:18:46.912Z,97638.91
2023-03-27T08:21:14.691Z,97638.44
2023-03-27T08:23:42.737Z,97634.22
2023-03-27T08:26:15.527Z,97647.25
2023-03-27T08:28:46.131Z,97651.09
2023-03-27T08:31:15.802Z,97635.47
2023-03-27T08:33:43.843Z,97628.03
2023-03-27T08:36:12.075Z,97630.34
2023-03-27T08:38:39.690Z,97636.47
2023-03-27T08:41:08.000Z,97640.72
2023-03-27T08:43:42.091Z,97645.75
2023-03-27T08:46:20.959Z,97655.38
2023-03-27T08:49:05.003Z,97658.09
2023-03-27T08:51:42.223Z,97652.81
2023-03-27T08:54:16.580Z,97661.63
2023-03-27T08:56:45.611Z,97655.28
2023-03-27T08:59:17.344Z,97662.06
2023-03-27T09:01:57.691Z,97656.34
2023-03-27T09:04:28.470Z,97650.22
2023-03-27T09:07:05.488Z,97655.09
2023-03-27T09:09:55.565Z,97653.63
2023-03-27T09:12:34.204Z,97653.53
2023-03-27T09:15:10.004Z,97651.38
2023-03-27T09:17:42.137Z,97656.38
2023-03-27T09:20:10.124Z,97655.97
2023-03-27T09:22:43.974Z,97661.72
2023-03-27T09:25:38.125Z,97652.75
2023-03-27T09:28:15.787Z,97647.75
2023-03-27T09:30:43.756Z,97652.16
2023-03-27T09:33:12.365Z,97649.19
2023-03-27T09:35:42.247Z,97651.38
2023-03-27T09:38:35.929Z,97655.53
2023-03-27T09:41:08.121Z,97666.16
2023-03-27T09:44:06.431Z,97668.94
2023-03-27T09:46:36.765Z,97672.94
2023-03-27T09:49:12.099Z,97675.13
2023-03-27T09:51:46.126Z,97677.75
2023-03-27T09:54:17.861Z,97683.63
2023-03-27T09:56:51.971Z,97682.31
2023-03-27T09:59:33.000Z,97683.97
2023-03-27T10:02:21.140Z,97690.16
2023-03-27T10:04:59.449Z,97691.94
2023-03-27T10:07:27.918Z,97700.00
2023-03-27T10:10:06.889Z,97702.47
2023-03-27T10:12:35.797Z,97709.97
2023-03-27T10:15:05.938Z,97712.09
2023-03-27T10:17:39.340Z,97712.88
2023-03-27T10:20:13.881Z,97716.41
2023-03-27T10:22:43.189Z,97716.47
2023-03-27T10:25:18.432Z,97706.22
2023-03-27T10:27:46.681Z,97710.50
2023-03-27T10:30:27.361Z,97720.16
2023-03-27T10:32:55.564Z,97721.84
2023-03-27T10:35:37.024Z,97717.78
2023-03-27T10:38:14.306Z,97730.13
2023-03-27T10:40:44.939Z,97739.16
2023-03-27T10:43:27.084Z,97730.44
2023-03-27T10:46:07.487Z,97740.13
2023-03-27T10:49:00.308Z,97745.66
2023-03-27T10:51:46.744Z,97743.56
2023-03-27T10:54:31.989Z,97722.47
2023-03-27T10:57:10.294Z,97746.59
2023-03-27T11:00:13.512Z,97742.66
2023-03-27T11:02:47.613Z,97749.16
2023-03-27T11:05:19.670Z,97749.94
2023-03-27T11:07:52.354Z,97753.94
2023-03-27T11:10:24.361Z,97743.56
2023-03-27T11:12:56.232Z,97737.97
2023-03-27T11:15:28.453Z,97739.78
2023-03-27T11:18:14.460Z,97744.06
2023-03-27T11:21:01.998Z,97739.84
2023-03-27T11:23:35.455Z,97752.47
2023-03-27T11:26:06.043Z,97750.38
2023-03-27T11:28:43.328Z,97748.50
2023-03-27T11:31:32.282Z,97766.66
2023-03-27T11:34:07.261Z,97760.34
2023-03-27T11:36:55.294Z,97757.81
2023-03-27T11:39:39.318Z,97767.59
2023-03-27T11:42:31.626Z,97771.09
2023-03-27T11:45:04.431Z,97763.38
2023-03-27T11:48:07.850Z,97773.88
2023-03-27T11:50:42.341Z,97769.19
2023-03-27T11:53:28.504Z,97762.66
2023-03-27T11:56:16.148Z,97778.59
2023-03-27T11:58:47.834Z,97764.38
2023-03-27T12:01:28.135Z,97770.16
2023-03-27T12:04:09.333Z,97767.19
2023-03-27T12:06:43.625Z,97774.34
2023-03-27T12:09:33.265Z,97774.69
2023-03-27T12:12:11.979Z,97784.22
2023-03-27T12:14:50.112Z,97779.75
2023-03-27T12:17:21.860Z,97800.94
2023-03-27T12:20:11.745Z,97793.91
2023-03-27T12:22:47.952Z,97803.63
2023-03-27T12:25:34.745Z,97803.56
2023-03-27T12:28:41.268Z,97813.09
2023-03-27T12:31:45.681Z,97818.22
2023-03-27T12:34:34.393Z,97827.66
2023-03-27T12:37:04.386Z,97817.50
2023-03-27T12:39:31.798Z,97818.03
2023-03-27T12:41:59.924Z,97845.97
2023-03-27T12:44:30.341Z,97843.28
2023-03-27T12:47:18.094Z,97833.84
2023-03-27T12:49:48.575Z,97852.53
2023-03-27T12:52:19.960Z,97864.12
2023-03-27T12:55:17.573Z,97856.91
2023-03-27T12:57:46.734Z,97861.94
2023-03-27T13:00:23.880Z,97882.28
2023-03-27T13:03:09.693Z,97888.53
2023-03-27T13:06:08.476Z,97899.75
2023-03-27T13:08:49.883Z,97890.41
2023-03-27T13:11:30.286Z,97915.31
2023-03-27T13:14:26.125Z,97920.28
2023-03-27T13:17:03.222Z,97937.19
2023-03-27T13:19:31.144Z,97945.81
2023-03-27T13:22:24.429Z,97923.34
2023-03-27T13:24:55.583Z,97939.50
2023-03-27T13:27:38.691Z,97946.75
2023-03-27T13:30:07.508Z,97962.97
2023-03-27T13:32:40.605Z,97963.81
2023-03-27T13:35:21.207Z,97997.22
2023-03-27T13:37:49.057Z,97993.72
2023-03-27T13:40:24.332Z,97981.81
2023-03-27T13:43:26.763Z,98000.97
2023-03-27T13:45:55.481Z,98013.88
2023-03-27T13:48:40.104Z,98033.56
2023-03-27T13:51:34.888Z,98042.97
2023-03-27T13:54:42.340Z,98058.41
2023-03-27T13:57:12.527Z,98074.53
2023-03-27T13:59:51.581Z,98093.13
2023-03-27T14:02:29.385Z,98105.16
2023-03-27T14:05:12.696Z,98109.56
2023-03-27T14:07:52.514Z,98122.47
2023-03-27T14:10:35.592Z,98112.97
2023-03-27T14:13:24.054Z,98129.28
2023-03-27T14:16:03.842Z,98135.75
2023-03-27T14:18:41.216Z,98123.06
2023-03-27T14:21:31.352Z,98143.34
2023-03-27T14:24:22.422Z,98143.75
2023-03-27T14:26:52.742Z,98164.34
2023-03-27T14:29:21.353Z,98145.66
2023-03-27T14:31:49.321Z,98167.84
2023-03-27T14:34:24.702Z,98153.12
2023-03-27T14:36:56.168Z,98184.66
2023-03-27T14:41:58.800Z,98184.22
2023-03-27T14:44:30.329Z,98196.03
2023-03-27T14:47:03.784Z,98202.87
2023-03-27T14:49:38.816Z,98212.66
2023-03-27T14:52:07.864Z,98212.81
2023-03-27T14:54:52.264Z,98222.72
2023-03-27T14:57:25.866Z,98223.78
2023-03-27T14:59:54.757Z,98241.16
2023-03-27T15:02:35.133Z,98238.22
2023-03-27T15:05:12.143Z,98244.47
2023-03-27T15:07:42.824Z,98232.66
2023-03-27T15:10:24.509Z,98281.06
2023-03-27T15:12:58.642Z,98283.00
2023-03-27T15:15:38.961Z,98259.12
2023-03-27T15:18:32.095Z,98298.81
2023-03-27T15:21:58.520Z,98293.44
2023-03-27T15:24:31.932Z,98317.03
2023-03-27T15:27:00.897Z,98327.53
2023-03-27T15:29:39.142Z,98343.03
2023-03-27T15:32:12.101Z,98355.22
2023-03-27T15:34:48.248Z,98340.66
2023-03-27T15:37:23.384Z,98344.72
2023-03-27T15:40:07.301Z,98357.59
2023-03-27T15:42:47.529Z,98366.94
2023-03-27T15:45:16.883Z,98393.00
2023-03-27T15:47:45.557Z,98368.09
2023-03-27T15:50:19.663Z,98375.09
2023-03-27T15:52:51.716Z,98377.09
2023-03-27T15:55:38.193Z,98383.94
2023-03-27T15:58:16.509Z,98380.53
2023-03-27T16:00:48.617Z,98407.66
2023-03-27T16:03:22.615Z,98428.16
2023-03-27T16:05:52.165Z,98416.84
2023-03-27T16:08:28.654Z,98433.47
2023-03-27T16:10:56.959Z,98434.16
2023-03-27T16:13:37.244Z,98434.59
2023-03-27T16:16:19.214Z,98445.22
2023-03-27T16:18:49.322Z,98452.09
2023-03-27T16:21:21.065Z,98461.81
2023-03-27T16:23:48.873Z,98475.28
2023-03-27T16:26:18.561Z,98477.56
2023-03-27T16:28:46.193Z,98492.59
2023-03-27T16:31:17.025Z,98496.94
2023-03-27T16:33:45.806Z,98505.72
2023-03-27T16:36:19.351Z,98520.75
2023-03-27T16:38:46.813Z,98527.09
2023-03-27T16:41:16.331Z,98529.37
2023-03-27T16:43:44.900Z,98510.38
2023-03-27T16:46:19.367Z,98525.94
2023-03-27T16:48:47.149Z,98544.28
2023-03-27T16:51:15.031Z,98542.69
2023-03-27T16:53:42.410Z,98543.63
2023-03-27T16:56:10.253Z,98567.72
2023-03-27T16:58:38.469Z,98570.72
2023-03-27T17:01:07.429Z,98572.41
2023-03-27T17:03:37.159Z,98578.44
2023-03-27T17:06:08.006Z,98592.41
2023-03-27T17:08:36.649Z,98605.03
2023-03-27T17:11:08.813Z,98609.28
2023-03-27T17:13:37.380Z,98605.59
2023-03-27T17:16:05.769Z,98616.69
2023-03-27T17:18:34.777Z,98642.47
2023-03-27T17:21:02.611Z,98639.22
2023-03-27T17:23:30.059Z,98647.03
2023-03-27T17:26:00.992Z,98661.06
2023-03-27T17:28:29.357Z,98661.47
2023-03-27T17:31:04.551Z,98662.31
2023-03-27T17:33:33.644Z,98661.78
2023-03-27T17:36:01.541Z,98657.25
2023-03-27T17:38:29.563Z,98647.94
2023-03-27T17:40:57.749Z,98670.19
2023-03-27T17:43:25.176Z,98660.19
2023-03-27T17:45:53.207Z,98647.41
2023-03-27T17:48:20.969Z,98674.47
2023-03-27T17:51:01.154Z,98667.25
2023-03-27T17:53:37.230Z,98667.94
2023-03-27T17:56:05.051Z,98691.38
2023-03-27T17:58:34.167Z,98691.19
2023-03-27T18:01:12.386Z,98693.81
2023-03-27T18:03:40.317Z,98698.31
2023-03-27T18:06:08.528Z,98685.78
2023-03-27T18:08:36.166Z,98715.75
2023-03-27T18:11:09.124Z,98722.94
2023-03-27T18:13:37.539Z,98715.88
2023-03-27T18:16:08.547Z,98704.19
2023-03-27T18:18:39.444Z,98719.22
2023-03-27T18:21:08.180Z,98699.94
2023-03-27T18:23:35.572Z,98705.22
2023-03-27T18:26:05.208Z,98716.56
2023-03-27T18:28:33.782Z,98706.00
2023-03-27T18:31:08.317Z,98726.44
2023-03-27T18:33:36.285Z,98742.78
2023-03-27T18:36:04.914Z,98772.28
2023-03-27T18:38:32.656Z,98754.94
2023-03-27T18:41:00.799Z,98784.28
2023-03-27T18:43:28.597Z,98785.50
2023-03-27T18:46:04.294Z,98792.50
2023-03-27T18:48:32.058Z,98785.22
2023-03-27T18:51:02.807Z,98784.94
2023-03-27T18:53:30.988Z,98794.91
2023-03-27T18:55:59.523Z,98794.06
2023-03-27T18:58:28.555Z,98804.06
2023-03-27T19:00:56.779Z,98814.69
2023-03-27T19:03:26.340Z,98809.56
2023-03-27T19:05:53.943Z,98811.69
2023-03-27T19:08:21.908Z,98826.28
2023-03-27T19:10:49.964Z,98825.06
2023-03-27T19:13:17.824Z,98830.13
2023-03-27T19:15:49.071Z,98828.38
2023-03-27T19:18:18.664Z,98820.06
2023-03-27T19:20:51.492Z,98843.37
2023-03-27T19:23:19.777Z,98853.28
2023-03-27T19:25:48.793Z,98847.09
2023-03-27T19:28:17.101Z,98840.66
2023-03-27T19:30:47.636Z,98847.41
2023-03-27T19:33:15.603Z,98863.25
2023-03-27T19:35:43.055Z,98858.59
2023-03-27T19:38:13.023Z,98861.62
2023-03-27T19:40:40.643Z,98853.78
2023-03-27T19:43:08.111Z,98870.50
2023-03-27T19:45:38.048Z,98856.03
2023-03-27T19:48:05.687Z,98868.03
2023-03-27T19:50:33.371Z,98869.12
2023-03-27T19:53:08.841Z,98894.44
2023-03-27T19:55:37.574Z,98900.59
2023-03-27T19:58:05.455Z,98881.59
2023-03-27T20:00:35.034Z,98906.34
2023-03-27T20:03:02.936Z,98905.22
2023-03-27T20:05:30.877Z,98906.91
2023-03-27T20:08:01.041Z,98904.00
2023-03-27T20:10:28.763Z,98904.19
2023-03-27T20:12:56.413Z,98900.59
2023-03-27T20:15:23.928Z,98909.59
2023-03-27T20:17:54.986Z,98926.22
2023-03-27T20:20:22.542Z,98916.94
2023-03-27T20:22:57.640Z,98924.06
2023-03-27T20:25:28.032Z,98924.16
2023-03-27T20:27:56.326Z,98927.47
2023-03-27T20:30:24.027Z,98938.47
2023-03-27T20:32:52.375Z,98938.84
2023-03-27T20:35:24.742Z,98950.53
2023-03-27T20:37:56.066Z,98949.84
2023-03-27T20:40:25.068Z,98952.53
2023-03-27T20:43:03.142Z,98960.19
2023-03-27T20:45:31.421Z,98956.31
2023-03-27T20:48:05.064Z,98971.81
2023-03-27T20:50:35.377Z,98973.06
2023-03-27T20:53:04.404Z,98976.94
2023-03-27T20:55:34.877Z,98986.56
2023-03-27T20:58:07.163Z,98985.66
2023-03-27T21:00:35.638Z,98991.06
2023-03-27T21:03:03.204Z,98981.84
2023-03-27T21:05:32.651Z,98992.94
2023-03-27T21:08:00.147Z,98987.72
2023-03-27T21:10:27.587Z,98997.84
2023-03-27T21:12:56.732Z,98992.72
2023-03-27T21:15:24.404Z,99005.41
2023-03-27T21:17:51.934Z,99007.88
2023-03-27T21:20:19.683Z,99001.63
2023-03-27T21:22:52.634Z,99011.94
2023-03-27T21:25:21.414Z,99015.28
2023-03-27T21:27:51.036Z,99015.25
2023-03-27T21:30:18.511Z,99024.28
2023-03-27T21:32:47.195Z,99026.03
2023-03-27T21:35:14.706Z,99026.25
2023-03-27T21:37:42.432Z,99022.03
2023-03-27T21:40:10.870Z,99029.72
2023-03-27T21:42:38.250Z,99029.38
2023-03-27T21:45:06.297Z,99036.84
2023-03-27T21:47:46.498Z,99035.75
2023-03-27T21:50:14.971Z,99027.53
2023-03-27T21:52:42.674Z,99042.19
2023-03-27T21:55:10.030Z,99046.97
2023-03-27T21:57:37.398Z,99038.16
2023-03-27T22:00:07.286Z,99036.03
2023-03-27T22:02:41.282Z,99032.28
2023-03-27T22:05:09.218Z,99037.06
2023-03-27T22:07:36.864Z,99030.75
2023-03-27T22:10:06.343Z,99033.19
2023-03-27T22:12:36.011Z,99046.03
2023-03-27T22:15:04.423Z,99041.44
2023-03-27T22:17:31.893Z,99054.41
2023-03-27T22:19:59.679Z,99060.72
2023-03-27T22:22:27.160Z,99061.47
2023-03-27T22:24:54.638Z,99061.88
2023-03-27T22:27:22.349Z,99066.00
2023-03-27T22:29:49.740Z,99067.34
2023-03-27T22:32:17.124Z,99067.62
2023-03-27T22:34:44.778Z,99080.50
2023-03-27T22:37:12.181Z,99079.69
2023-03-27T22:39:39.593Z,99082.34
2023-03-27T22:42:07.246Z,99083.91
2023-03-27T22:44:34.780Z,99096.78
2023-03-27T22:47:02.176Z,99095.72
2023-03-27T22:49:29.832Z,99101.78
2023-03-27T22:51:57.203Z,99085.16
2023-03-27T22:54:24.695Z,99102.97
2023-03-27T22:56:55.136Z,99103.72
2023-03-27T22:59:22.584Z,99096.34
2023-03-27T23:01:50.044Z,99101.75
2023-03-27T23:04:17.768Z,99115.28
2023-03-27T23:06:45.359Z,99112.91
2023-03-27T23:09:12.788Z,99111.25
2023-03-27T23:11:41.337Z,99127.75
2023-03-27T23:14:08.695Z,99128.31
2023-03-27T23:16:36.928Z,99128.78
2023-03-27T23:19:04.849Z,99138.53
2023-03-27T23:21:32.391Z,99139.44
2023-03-27T23:23:59.844Z,99135.22
2023-03-27T23:26:27.680Z,99140.22
2023-03-27T23:28:55.054Z,99140.06
2023-03-27T23:31:22.678Z,99132.44
2023-03-27T23:33:51.219Z,99147.34
2023-03-27T23:36:21.614Z,99138.63
2023-03-27T23:38:49.830Z,99140.00
2023-03-27T23:41:17.958Z,99147.78
2023-03-27T23:43:45.994Z,99155.91
2023-03-27T23:46:13.868Z,99152.94
2023-03-27T23:48:42.961Z,99152.50
2023-03-27T23:51:11.819Z,99161.59
2023-03-27T23:53:39.309Z,99160.34
2023-03-27T23:56:07.612Z,99165.75
2023-03-27T23:58:37.135Z,99170.28
